sensor_id;sensor_type;location;lat;lon;timestamp;pressure;altitude;pressure_sealevel;temperature
81657;BMP280;71067;51.482;-0.580;2023-10-13T00:00:36;100630.03;;;17.31
81657;BMP280;71067;51.482;-0.580;2023-10-13T00:03:02;100626.25;;;17.27
81657;BMP280;71067;51.482;-0.580;2023-10-13T00:05:29;100614.97;;;17.27
81657;BMP280;71067;51.482;-0.580;2023-10-13T00:08:01;100607.91;;;17.27
81657;BMP280;71067;51.482;-0.580;2023-10-13T00:10:28;100602.88;;;17.26
81657;BMP280;71067;51.482;-0.580;2023-10-13T00:12:54;100602.88;;;17.26
81657;BMP280;71067;51.482;-0.580;2023-10-13T00:15:19;100607.09;;;17.27
81657;BMP280;71067;51.482;-0.580;2023-10-13T00:17:53;100589.00;;;17.25
81657;BMP280;71067;51.482;-0.580;2023-10-13T00:20:21;100584.19;;;17.22
81657;BMP280;71067;51.482;-0.580;2023-10-13T00:23:03;100583.75;;;17.25
81657;BMP280;71067;51.482;-0.580;2023-10-13T00:25:28;100571.09;;;17.22
81657;BMP280;71067;51.482;-0.580;2023-10-13T00:27:59;100576.91;;;17.24
81657;BMP280;71067;51.482;-0.580;2023-10-13T00:30:26;100569.06;;;17.24
81657;BMP280;71067;51.482;-0.580;2023-10-13T00:33:02;100564.63;;;17.25
81657;BMP280;71067;51.482;-0.580;2023-10-13T00:35:29;100552.78;;;17.22
81657;BMP280;71067;51.482;-0.580;2023-10-13T00:38:00;100550.75;;;17.24
81657;BMP280;71067;51.482;-0.580;2023-10-13T00:40:32;100547.34;;;17.24
81657;BMP280;71067;51.482;-0.580;2023-10-13T00:42:58;100538.09;;;17.21
81657;BMP280;71067;51.482;-0.580;2023-10-13T00:45:47;100524.00;;;17.22
81657;BMP280;71067;51.482;-0.580;2023-10-13T00:48:21;100527.44;;;17.23
81657;BMP280;71067;51.482;-0.580;2023-10-13T00:50:49;100513.53;;;17.22
81657;BMP280;71067;51.482;-0.580;2023-10-13T00:53:15;100505.31;;;17.19
81657;BMP280;71067;51.482;-0.580;2023-10-13T00:55:41;100501.84;;;17.25
81657;BMP280;71067;51.482;-0.580;2023-10-13T00:58:07;100495.78;;;17.24
81657;BMP280;71067;51.482;-0.580;2023-10-13T01:00:37;100484.09;;;17.27
81657;BMP280;71067;51.482;-0.580;2023-10-13T01:03:12;100488.53;;;17.26
81657;BMP280;71067;51.482;-0.580;2023-10-13T01:05:38;100482.50;;;17.26
81657;BMP280;71067;51.482;-0.580;2023-10-13T01:08:04;100481.50;;;17.27
81657;BMP280;71067;51.482;-0.580;2023-10-13T01:10:31;100471.66;;;17.22
81657;BMP280;71067;51.482;-0.580;2023-10-13T01:12:57;100472.03;;;17.26
81657;BMP280;71067;51.482;-0.580;2023-10-13T01:15:24;100480.25;;;17.29
81657;BMP280;71067;51.482;-0.580;2023-10-13T01:18:06;100474.63;;;17.33
81657;BMP280;71067;51.482;-0.580;2023-10-13T01:20:37;100452.50;;;17.28
81657;BMP280;71067;51.482;-0.580;2023-10-13T01:23:12;100459.47;;;17.34
81657;BMP280;71067;51.482;-0.580;2023-10-13T01:25:44;100443.78;;;17.34
81657;BMP280;71067;51.482;-0.580;2023-10-13T01:28:09;100436.50;;;17.37
81657;BMP280;71067;51.482;-0.580;2023-10-13T01:30:35;100435.50;;;17.38
81657;BMP280;71067;51.482;-0.580;2023-10-13T01:33:03;100424.06;;;17.39
81657;BMP280;71067;51.482;-0.580;2023-10-13T01:35:29;100413.13;;;17.42
81657;BMP280;71067;51.482;-0.580;2023-10-13T01:38:02;100394.19;;;17.40
81657;BMP280;71067;51.482;-0.580;2023-10-13T01:40:27;100396.81;;;17.40
81657;BMP280;71067;51.482;-0.580;2023-10-13T01:42:58;100365.69;;;17.31
81657;BMP280;71067;51.482;-0.580;2023-10-13T01:45:24;100390.78;;;17.39
81657;BMP280;71067;51.482;-0.580;2023-10-13T01:47:54;100377.53;;;17.34
81657;BMP280;71067;51.482;-0.580;2023-10-13T01:50:19;100384.97;;;17.37
81657;BMP280;71067;51.482;-0.580;2023-10-13T01:52:54;100366.91;;;17.29
81657;BMP280;71067;51.482;-0.580;2023-10-13T01:55:40;100376.97;;;17.32
81657;BMP280;71067;51.482;-0.580;2023-10-13T01:58:10;100365.09;;;17.29
81657;BMP280;71067;51.482;-0.580;2023-10-13T02:00:43;100380.97;;;17.34
81657;BMP280;71067;51.482;-0.580;2023-10-13T02:03:10;100376.38;;;17.30
81657;BMP280;71067;51.482;-0.580;2023-10-13T02:05:47;100369.69;;;17.34
81657;BMP280;71067;51.482;-0.580;2023-10-13T02:08:18;100376.16;;;17.31
81657;BMP280;71067;51.482;-0.580;2023-10-13T02:10:52;100385.84;;;17.31
81657;BMP280;71067;51.482;-0.580;2023-10-13T02:13:20;100362.50;;;17.29
81657;BMP280;71067;51.482;-0.580;2023-10-13T02:15:47;100355.66;;;17.28
81657;BMP280;71067;51.482;-0.580;2023-10-13T02:18:19;100354.88;;;17.28
81657;BMP280;71067;51.482;-0.580;2023-10-13T02:20:55;100346.22;;;17.27
81657;BMP280;71067;51.482;-0.580;2023-10-13T02:23:21;100338.56;;;17.26
81657;BMP280;71067;51.482;-0.580;2023-10-13T02:25:47;100328.31;;;17.24
81657;BMP280;71067;51.482;-0.580;2023-10-13T02:28:12;100320.72;;;17.23
81657;BMP280;71067;51.482;-0.580;2023-10-13T02:30:47;100317.06;;;17.24
81657;BMP280;71067;51.482;-0.580;2023-10-13T02:33:16;100300.56;;;17.23
81657;BMP280;71067;51.482;-0.580;2023-10-13T02:35:47;100294.28;;;17.24
81657;BMP280;71067;51.482;-0.580;2023-10-13T02:38:19;100294.28;;;17.24
81657;BMP280;71067;51.482;-0.580;2023-10-13T02:40:53;100286.06;;;17.21
81657;BMP280;71067;51.482;-0.580;2023-10-13T02:43:20;100271.19;;;17.21
81657;BMP280;71067;51.482;-0.580;2023-10-13T02:45:52;100262.75;;;17.19
81657;BMP280;71067;51.482;-0.580;2023-10-13T02:48:23;100270.59;;;17.19
81657;BMP280;71067;51.482;-0.580;2023-10-13T02:50:57;100254.69;;;17.21
81657;BMP280;71067;51.482;-0.580;2023-10-13T02:53:22;100251.28;;;17.20
81657;BMP280;71067;51.482;-0.580;2023-10-13T02:55:50;100246.06;;;17.20
81657;BMP280;71067;51.482;-0.580;2023-10-13T02:58:15;100250.47;;;17.20
81657;BMP280;71067;51.482;-0.580;2023-10-13T03:00:41;100235.81;;;17.19
81657;BMP280;71067;51.482;-0.580;2023-10-13T03:03:06;100222.94;;;17.17
81657;BMP280;71067;51.482;-0.580;2023-10-13T03:05:35;100232.38;;;17.18
81657;BMP280;71067;51.482;-0.580;2023-10-13T03:08:05;100214.28;;;17.17
81657;BMP280;71067;51.482;-0.580;2023-10-13T03:10:30;100206.63;;;17.15
81657;BMP280;71067;51.482;-0.580;2023-10-13T03:12:55;100189.34;;;17.14
81657;BMP280;71067;51.482;-0.580;2023-10-13T03:15:21;100181.50;;;17.14
81657;BMP280;71067;51.482;-0.580;2023-10-13T03:17:56;100171.47;;;17.11
81657;BMP280;71067;51.482;-0.580;2023-10-13T03:20:24;100148.03;;;17.05
81657;BMP280;71067;51.482;-0.580;2023-10-13T03:22:57;100145.31;;;17.11
81657;BMP280;71067;51.482;-0.580;2023-10-13T03:25:22;100140.53;;;17.08
81657;BMP280;71067;51.482;-0.580;2023-10-13T03:27:54;100137.69;;;17.10
81657;BMP280;71067;51.482;-0.580;2023-10-13T03:30:19;100127.22;;;17.10
81657;BMP280;71067;51.482;-0.580;2023-10-13T03:32:46;100113.22;;;17.04
81657;BMP280;71067;51.482;-0.580;2023-10-13T03:35:14;100096.44;;;17.12
81657;BMP280;71067;51.482;-0.580;2023-10-13T03:37:49;100089.72;;;17.16
81657;BMP280;71067;51.482;-0.580;2023-10-13T03:40:14;100094.75;;;17.17
81657;BMP280;71067;51.482;-0.580;2023-10-13T03:45:42;100067.13;;;17.21
81657;BMP280;71067;51.482;-0.580;2023-10-13T03:48:18;100027.25;;;17.08
81657;BMP280;71067;51.482;-0.580;2023-10-13T03:50:49;100054.75;;;17.28
81657;BMP280;71067;51.482;-0.580;2023-10-13T03:53:27;100044.44;;;17.34
81657;BMP280;71067;51.482;-0.580;2023-10-13T03:55:58;100037.72;;;17.38
81657;BMP280;71067;51.482;-0.580;2023-10-13T03:58:36;100030.00;;;17.43
81657;BMP280;71067;51.482;-0.580;2023-10-13T04:01:03;100027.72;;;17.46
81657;BMP280;71067;51.482;-0.580;2023-10-13T04:03:29;100023.88;;;17.49
81657;BMP280;71067;51.482;-0.580;2023-10-13T04:06:00;100027.63;;;17.53
81657;BMP280;71067;51.482;-0.580;2023-10-13T04:08:32;100001.66;;;17.51
81657;BMP280;71067;51.482;-0.580;2023-10-13T04:11:13;100013.72;;;17.64
81657;BMP280;71067;51.482;-0.580;2023-10-13T04:13:57;100008.06;;;17.67
81657;BMP280;71067;51.482;-0.580;2023-10-13T04:16:41;100006.69;;;17.76
81657;BMP280;71067;51.482;-0.580;2023-10-13T04:19:18;99999.97;;;17.80
81657;BMP280;71067;51.482;-0.580;2023-10-13T04:21:51;99989.63;;;17.85
81657;BMP280;71067;51.482;-0.580;2023-10-13T04:24:26;99992.34;;;17.90
81657;BMP280;71067;51.482;-0.580;2023-10-13T04:27:00;99991.88;;;17.93
81657;BMP280;71067;51.482;-0.580;2023-10-13T04:29:38;99984.84;;;17.93
81657;BMP280;71067;51.482;-0.580;2023-10-13T04:32:16;99985.50;;;18.00
81657;BMP280;71067;51.482;-0.580;2023-10-13T04:34:58;99979.00;;;18.03
81657;BMP280;71067;51.482;-0.580;2023-10-13T04:37:35;99980.28;;;18.00
81657;BMP280;71067;51.482;-0.580;2023-10-13T04:40:16;99980.13;;;18.07
81657;BMP280;71067;51.482;-0.580;2023-10-13T04:42:44;99961.34;;;18.10
81657;BMP280;71067;51.482;-0.580;2023-10-13T04:45:19;99977.16;;;18.15
81657;BMP280;71067;51.482;-0.580;2023-10-13T04:48:00;99962.59;;;18.19
81657;BMP280;71067;51.482;-0.580;2023-10-13T04:50:44;99946.59;;;18.20
81657;BMP280;71067;51.482;-0.580;2023-10-13T04:53:14;99950.03;;;18.21
81657;BMP280;71067;51.482;-0.580;2023-10-13T04:55:56;99947.31;;;18.27
81657;BMP280;71067;51.482;-0.580;2023-10-13T04:58:27;99955.72;;;18.29
81657;BMP280;71067;51.482;-0.580;2023-10-13T05:01:13;99942.94;;;18.33
81657;BMP280;71067;51.482;-0.580;2023-10-13T05:03:50;99941.13;;;18.33
81657;BMP280;71067;51.482;-0.580;2023-10-13T05:06:47;99943.50;;;18.35
81657;BMP280;71067;51.482;-0.580;2023-10-13T05:09:31;99928.34;;;18.37
81657;BMP280;71067;51.482;-0.580;2023-10-13T05:12:15;99932.88;;;18.41
81657;BMP280;71067;51.482;-0.580;2023-10-13T05:14:59;99903.75;;;18.38
81657;BMP280;71067;51.482;-0.580;2023-10-13T05:17:43;99936.63;;;18.45
81657;BMP280;71067;51.482;-0.580;2023-10-13T05:20:27;99919.88;;;18.46
81657;BMP280;71067;51.482;-0.580;2023-10-13T05:23:11;99933.88;;;18.52
81657;BMP280;71067;51.482;-0.580;2023-10-13T05:25:55;99923.16;;;18.53
81657;BMP280;71067;51.482;-0.580;2023-10-13T05:28:39;99925.06;;;18.58
81657;BMP280;71067;51.482;-0.580;2023-10-13T05:31:23;99926.06;;;18.57
81657;BMP280;71067;51.482;-0.580;2023-10-13T05:34:07;99903.47;;;18.68
81657;BMP280;71067;51.482;-0.580;2023-10-13T05:36:50;99907.69;;;18.69
81657;BMP280;71067;51.482;-0.580;2023-10-13T05:39:34;99899.09;;;18.73
81657;BMP280;71067;51.482;-0.580;2023-10-13T05:42:18;99899.72;;;18.80
81657;BMP280;71067;51.482;-0.580;2023-10-13T05:45:03;99894.84;;;18.84
81657;BMP280;71067;51.482;-0.580;2023-10-13T05:47:34;99896.50;;;18.90
81657;BMP280;71067;51.482;-0.580;2023-10-13T05:50:10;99869.94;;;18.86
81657;BMP280;71067;51.482;-0.580;2023-10-13T05:52:45;99860.34;;;18.92
81657;BMP280;71067;51.482;-0.580;2023-10-13T05:55:31;99862.31;;;19.01
81657;BMP280;71067;51.482;-0.580;2023-10-13T05:58:15;99860.41;;;18.97
81657;BMP280;71067;51.482;-0.580;2023-10-13T06:01:00;99883.63;;;19.05
81657;BMP280;71067;51.482;-0.580;2023-10-13T06:03:44;99875.44;;;19.01
81657;BMP280;71067;51.482;-0.580;2023-10-13T06:06:28;99878.44;;;19.10
81657;BMP280;71067;51.482;-0.580;2023-10-13T06:09:12;99874.13;;;19.04
81657;BMP280;71067;51.482;-0.580;2023-10-13T06:11:56;99882.97;;;19.14
81657;BMP280;71067;51.482;-0.580;2023-10-13T06:14:40;99884.56;;;19.15
81657;BMP280;71067;51.482;-0.580;2023-10-13T06:17:24;99867.47;;;19.13
81657;BMP280;71067;51.482;-0.580;2023-10-13T06:20:08;99844.25;;;19.05
81657;BMP280;71067;51.482;-0.580;2023-10-13T06:22:52;99868.06;;;19.20
81657;BMP280;71067;51.482;-0.580;2023-10-13T06:25:38;99839.19;;;19.20
81657;BMP280;71067;51.482;-0.580;2023-10-13T06:28:22;99839.47;;;19.18
81657;BMP280;71067;51.482;-0.580;2023-10-13T06:31:07;99834.38;;;19.28
81657;BMP280;71067;51.482;-0.580;2023-10-13T06:33:33;99851.38;;;19.26
81657;BMP280;71067;51.482;-0.580;2023-10-13T06:36:10;99848.50;;;19.27
81657;BMP280;71067;51.482;-0.580;2023-10-13T06:38:36;99854.22;;;19.24
81657;BMP280;71067;51.482;-0.580;2023-10-13T06:41:05;99866.72;;;19.34
81657;BMP280;71067;51.482;-0.580;2023-10-13T06:43:32;99873.78;;;19.33
81657;BMP280;71067;51.482;-0.580;2023-10-13T06:45:58;99857.66;;;19.41
81657;BMP280;71067;51.482;-0.580;2023-10-13T06:48:28;99854.75;;;19.43
81657;BMP280;71067;51.482;-0.580;2023-10-13T06:51:00;99841.94;;;19.46
81657;BMP280;71067;51.482;-0.580;2023-10-13T06:53:30;99845.91;;;19.49
81657;BMP280;71067;51.482;-0.580;2023-10-13T06:56:01;99848.78;;;19.47
81657;BMP280;71067;51.482;-0.580;2023-10-13T06:58:28;99843.00;;;19.50
81657;BMP280;71067;51.482;-0.580;2023-10-13T07:00:54;99853.31;;;19.52
81657;BMP280;71067;51.482;-0.580;2023-10-13T07:03:24;99845.19;;;19.53
81657;BMP280;71067;51.482;-0.580;2023-10-13T07:05:50;99851.75;;;19.56
81657;BMP280;71067;51.482;-0.580;2023-10-13T07:08:16;99858.38;;;19.58
81657;BMP280;71067;51.482;-0.580;2023-10-13T07:10:55;99858.38;;;19.58
81657;BMP280;71067;51.482;-0.580;2023-10-13T07:13:31;99848.91;;;19.57
81657;BMP280;71067;51.482;-0.580;2023-10-13T07:16:00;99857.06;;;19.61
81657;BMP280;71067;51.482;-0.580;2023-10-13T07:18:30;99850.81;;;19.62
81657;BMP280;71067;51.482;-0.580;2023-10-13T07:21:03;99842.66;;;19.63
81657;BMP280;71067;51.482;-0.580;2023-10-13T07:23:37;99848.19;;;19.62
81657;BMP280;71067;51.482;-0.580;2023-10-13T07:26:05;99834.25;;;19.61
81657;BMP280;71067;51.482;-0.580;2023-10-13T07:28:33;99842.38;;;19.60
81657;BMP280;71067;51.482;-0.580;2023-10-13T07:31:04;99840.31;;;19.62
81657;BMP280;71067;51.482;-0.580;2023-10-13T07:33:30;99841.03;;;19.57
81657;BMP280;71067;51.482;-0.580;2023-10-13T07:36:05;99828.94;;;19.56
81657;BMP280;71067;51.482;-0.580;2023-10-13T07:38:50;99833.88;;;19.53
81657;BMP280;71067;51.482;-0.580;2023-10-13T07:41:25;99829.88;;;19.50
81657;BMP280;71067;51.482;-0.580;2023-10-13T07:43:55;99833.53;;;19.44
81657;BMP280;71067;51.482;-0.580;2023-10-13T07:46:22;99828.75;;;19.41
81657;BMP280;71067;51.482;-0.580;2023-10-13T07:48:55;99838.47;;;19.41
81657;BMP280;71067;51.482;-0.580;2023-10-13T07:51:25;99812.59;;;19.33
81657;BMP280;71067;51.482;-0.580;2023-10-13T07:53:52;99822.97;;;19.39
81657;BMP280;71067;51.482;-0.580;2023-10-13T07:56:18;99825.78;;;19.38
81657;BMP280;71067;51.482;-0.580;2023-10-13T07:58:44;99826.06;;;19.36
81657;BMP280;71067;51.482;-0.580;2023-10-13T08:01:26;99842.63;;;19.37
81657;BMP280;71067;51.482;-0.580;2023-10-13T08:03:52;99841.03;;;19.36
81657;BMP280;71067;51.482;-0.580;2023-10-13T08:06:30;99839.19;;;19.36
81657;BMP280;71067;51.482;-0.580;2023-10-13T08:08:56;99842.03;;;19.35
81657;BMP280;71067;51.482;-0.580;2023-10-13T08:11:33;99842.25;;;19.28
81657;BMP280;71067;51.482;-0.580;2023-10-13T08:14:03;99847.00;;;19.31
81657;BMP280;71067;51.482;-0.580;2023-10-13T08:16:42;99851.22;;;19.32
81657;BMP280;71067;51.482;-0.580;2023-10-13T08:19:11;99844.88;;;19.28
81657;BMP280;71067;51.482;-0.580;2023-10-13T08:21:38;99838.47;;;19.24
81657;BMP280;71067;51.482;-0.580;2023-10-13T08:24:03;99842.69;;;19.25
81657;BMP280;71067;51.482;-0.580;2023-10-13T08:26:33;99843.72;;;19.24
81657;BMP280;71067;51.482;-0.580;2023-10-13T08:29:01;99847.88;;;19.20
81657;BMP280;71067;51.482;-0.580;2023-10-13T08:31:59;99839.47;;;19.18
81657;BMP280;71067;51.482;-0.580;2023-10-13T08:34:47;99850.44;;;19.15
81657;BMP280;71067;51.482;-0.580;2023-10-13T08:37:13;99863.31;;;19.17
81657;BMP280;71067;51.482;-0.580;2023-10-13T08:42:33;99850.38;;;19.10
81657;BMP280;71067;51.482;-0.580;2023-10-13T08:45:12;99856.00;;;19.02
81657;BMP280;71067;51.482;-0.580;2023-10-13T08:47:50;99849.50;;;19.05
81657;BMP280;71067;51.482;-0.580;2023-10-13T08:50:35;99837.13;;;19.00
81657;BMP280;71067;51.482;-0.580;2023-10-13T08:53:15;99860.66;;;18.95
81657;BMP280;71067;51.482;-0.580;2023-10-13T08:56:03;99846.81;;;18.83
81657;BMP280;71067;51.482;-0.580;2023-10-13T08:58:36;99868.44;;;18.90
81657;BMP280;71067;51.482;-0.580;2023-10-13T09:01:27;99860.47;;;18.85
81657;BMP280;71067;51.482;-0.580;2023-10-13T09:07:03;99876.31;;;18.90
81657;BMP280;71067;51.482;-0.580;2023-10-13T09:12:19;99872.88;;;18.90
81657;BMP280;71067;51.482;-0.580;2023-10-13T09:14:56;99859.44;;;18.86
81657;BMP280;71067;51.482;-0.580;2023-10-13T09:17:29;99872.56;;;18.86
81657;BMP280;71067;51.482;-0.580;2023-10-13T09:20:03;99870.50;;;18.88
81657;BMP280;71067;51.482;-0.580;2023-10-13T09:22:52;99874.47;;;18.91
81657;BMP280;71067;51.482;-0.580;2023-10-13T09:25:27;99863.69;;;18.87
81657;BMP280;71067;51.482;-0.580;2023-10-13T09:27:58;99860.78;;;18.89
81657;BMP280;71067;51.482;-0.580;2023-10-13T09:30:26;99879.41;;;18.87
81657;BMP280;71067;51.482;-0.580;2023-10-13T09:33:04;99859.44;;;18.86
81657;BMP280;71067;51.482;-0.580;2023-10-13T09:35:30;99847.63;;;18.84
81657;BMP280;71067;51.482;-0.580;2023-10-13T09:37:59;99855.00;;;18.87
81657;BMP280;71067;51.482;-0.580;2023-10-13T09:40:28;99867.88;;;18.88
81657;BMP280;71067;51.482;-0.580;2023-10-13T09:43:11;99861.59;;;18.89
81657;BMP280;71067;51.482;-0.580;2023-10-13T09:45:41;99869.22;;;18.91
81657;BMP280;71067;51.482;-0.580;2023-10-13T09:48:11;99875.28;;;18.91
81657;BMP280;71067;51.482;-0.580;2023-10-13T09:50:47;99883.66;;;18.93
81657;BMP280;71067;51.482;-0.580;2023-10-13T09:53:14;99857.44;;;18.93
81657;BMP280;71067;51.482;-0.580;2023-10-13T09:56:13;99873.25;;;18.98
81657;BMP280;71067;51.482;-0.580;2023-10-13T10:01:19;99867.00;;;18.99
81657;BMP280;71067;51.482;-0.580;2023-10-13T10:04:13;99868.13;;;19.03
81657;BMP280;71067;51.482;-0.580;2023-10-13T10:06:54;99870.50;;;19.05
81657;BMP280;71067;51.482;-0.580;2023-10-13T10:09:27;99869.22;;;19.07
81657;BMP280;71067;51.482;-0.580;2023-10-13T10:15:26;99874.00;;;19.10
81657;BMP280;71067;51.482;-0.580;2023-10-13T10:17:56;99861.66;;;19.11
81657;BMP280;71067;51.482;-0.580;2023-10-13T10:20:35;99869.38;;;19.17
81657;BMP280;71067;51.482;-0.580;2023-10-13T10:23:27;99878.91;;;19.23
81657;BMP280;71067;51.482;-0.580;2023-10-13T10:25:55;99873.66;;;19.23
81657;BMP280;71067;51.482;-0.580;2023-10-13T10:28:38;99883.69;;;19.26
81657;BMP280;71067;51.482;-0.580;2023-10-13T10:31:05;99883.19;;;19.29
81657;BMP280;71067;51.482;-0.580;2023-10-13T10:33:31;99876.91;;;19.30
81657;BMP280;71067;51.482;-0.580;2023-10-13T10:35:59;99870.34;;;19.33
81657;BMP280;71067;51.482;-0.580;2023-10-13T10:38:25;99853.50;;;19.29
81657;BMP280;71067;51.482;-0.580;2023-10-13T10:40:55;99846.00;;;19.37
81657;BMP280;71067;51.482;-0.580;2023-10-13T10:43:28;99843.38;;;19.37
81657;BMP280;71067;51.482;-0.580;2023-10-13T10:46:18;99849.78;;;19.41
81657;BMP280;71067;51.482;-0.580;2023-10-13T10:48:44;99837.72;;;19.45
81657;BMP280;71067;51.482;-0.580;2023-10-13T10:51:11;99828.56;;;19.48
81657;BMP280;71067;51.482;-0.580;2023-10-13T10:53:49;99816.72;;;19.45
81657;BMP280;71067;51.482;-0.580;2023-10-13T10:56:17;99826.63;;;19.60
81657;BMP280;71067;51.482;-0.580;2023-10-13T10:58:49;99827.22;;;19.67
81657;BMP280;71067;51.482;-0.580;2023-10-13T11:01:23;99836.22;;;19.71
81657;BMP280;71067;51.482;-0.580;2023-10-13T11:03:55;99846.25;;;19.79
81657;BMP280;71067;51.482;-0.580;2023-10-13T11:06:33;99853.91;;;19.80
81657;BMP280;71067;51.482;-0.580;2023-10-13T11:09:04;99848.66;;;19.80
81657;BMP280;71067;51.482;-0.580;2023-10-13T11:11:43;99859.16;;;19.80
81657;BMP280;71067;51.482;-0.580;2023-10-13T11:14:19;99865.78;;;19.83
81657;BMP280;71067;51.482;-0.580;2023-10-13T11:16:49;99855.00;;;19.84
81657;BMP280;71067;51.482;-0.580;2023-10-13T11:19:38;99843.44;;;19.85
81657;BMP280;71067;51.482;-0.580;2023-10-13T11:22:17;99850.31;;;19.86
81657;BMP280;71067;51.482;-0.580;2023-10-13T11:24:59;99845.63;;;19.88
81657;BMP280;71067;51.482;-0.580;2023-10-13T11:27:31;99848.47;;;19.87
81657;BMP280;71067;51.482;-0.580;2023-10-13T11:30:18;99858.47;;;19.90
81657;BMP280;71067;51.482;-0.580;2023-10-13T11:33:07;99835.88;;;19.89
81657;BMP280;71067;51.482;-0.580;2023-10-13T11:35:42;99850.94;;;19.98
81657;BMP280;71067;51.482;-0.580;2023-10-13T11:38:15;99840.19;;;20.00
81657;BMP280;71067;51.482;-0.580;2023-10-13T11:40:50;99840.44;;;19.98
81657;BMP280;71067;51.482;-0.580;2023-10-13T11:46:12;99829.41;;;19.97
81657;BMP280;71067;51.482;-0.580;2023-10-13T11:48:38;99826.56;;;20.03
81657;BMP280;71067;51.482;-0.580;2023-10-13T11:51:07;99828.47;;;20.08
81657;BMP280;71067;51.482;-0.580;2023-10-13T11:53:35;99817.16;;;20.07
81657;BMP280;71067;51.482;-0.580;2023-10-13T11:56:04;99811.09;;;20.07
81657;BMP280;71067;51.482;-0.580;2023-10-13T11:58:37;99815.88;;;20.10
81657;BMP280;71067;51.482;-0.580;2023-10-13T12:01:03;99829.28;;;20.13
81657;BMP280;71067;51.482;-0.580;2023-10-13T12:03:37;99825.13;;;20.17
81657;BMP280;71067;51.482;-0.580;2023-10-13T12:06:21;99833.03;;;20.17
81657;BMP280;71067;51.482;-0.580;2023-10-13T12:08:59;99826.47;;;20.20
81657;BMP280;71067;51.482;-0.580;2023-10-13T12:11:38;99835.38;;;20.19
81657;BMP280;71067;51.482;-0.580;2023-10-13T12:14:07;99835.69;;;20.22
81657;BMP280;71067;51.482;-0.580;2023-10-13T12:19:19;99832.06;;;20.28
81657;BMP280;71067;51.482;-0.580;2023-10-13T12:21:51;99834.91;;;20.27
81657;BMP280;71067;51.482;-0.580;2023-10-13T12:24:24;99834.97;;;20.32
81657;BMP280;71067;51.482;-0.580;2023-10-13T12:27:08;99826.56;;;20.30
81657;BMP280;71067;51.482;-0.580;2023-10-13T12:29:49;99831.34;;;20.38
81657;BMP280;71067;51.482;-0.580;2023-10-13T12:32:17;99827.72;;;20.39
81657;BMP280;71067;51.482;-0.580;2023-10-13T12:34:48;99830.81;;;20.36
81657;BMP280;71067;51.482;-0.580;2023-10-13T12:37:27;99849.22;;;20.36
81657;BMP280;71067;51.482;-0.580;2023-10-13T12:42:53;99839.19;;;20.33
81657;BMP280;71067;51.482;-0.580;2023-10-13T12:45:38;99821.34;;;20.35
81657;BMP280;71067;51.482;-0.580;2023-10-13T12:48:22;99825.06;;;20.39
81657;BMP280;71067;51.482;-0.580;2023-10-13T12:51:06;99825.81;;;20.34
81657;BMP280;71067;51.482;-0.580;2023-10-13T12:56:13;99827.66;;;20.34
81657;BMP280;71067;51.482;-0.580;2023-10-13T12:58:39;99841.88;;;20.38
81657;BMP280;71067;51.482;-0.580;2023-10-13T13:01:04;99847.44;;;20.41
81657;BMP280;71067;51.482;-0.580;2023-10-13T13:03:33;99827.13;;;20.37
81657;BMP280;71067;51.482;-0.580;2023-10-13T13:05:59;99830.81;;;20.36
81657;BMP280;71067;51.482;-0.580;2023-10-13T13:08:26;99817.66;;;20.31
81657;BMP280;71067;51.482;-0.580;2023-10-13T13:10:51;99829.72;;;20.32
81657;BMP280;71067;51.482;-0.580;2023-10-13T13:13:17;99825.25;;;20.32
81657;BMP280;71067;51.482;-0.580;2023-10-13T13:15:49;99798.72;;;20.34
81657;BMP280;71067;51.482;-0.580;2023-10-13T13:18:15;99804.50;;;20.36
81657;BMP280;71067;51.482;-0.580;2023-10-13T13:20:40;99800.84;;;20.37
81657;BMP280;71067;51.482;-0.580;2023-10-13T13:23:17;99799.56;;;20.39
81657;BMP280;71067;51.482;-0.580;2023-10-13T13:25:45;99808.22;;;20.40
81657;BMP280;71067;51.482;-0.580;2023-10-13T13:28:10;99798.25;;;20.42
81657;BMP280;71067;51.482;-0.580;2023-10-13T13:30:36;99797.13;;;20.33
81657;BMP280;71067;51.482;-0.580;2023-10-13T13:33:03;99809.25;;;20.34
81657;BMP280;71067;51.482;-0.580;2023-10-13T13:35:37;99807.34;;;20.29
81657;BMP280;71067;51.482;-0.580;2023-10-13T13:38:02;99809.75;;;20.31
81657;BMP280;71067;51.482;-0.580;2023-10-13T13:40:37;99781.50;;;20.21
81657;BMP280;71067;51.482;-0.580;2023-10-13T13:43:02;99800.50;;;20.28
81657;BMP280;71067;51.482;-0.580;2023-10-13T13:45:28;99788.69;;;20.26
81657;BMP280;71067;51.482;-0.580;2023-10-13T13:47:54;99792.03;;;20.21
81657;BMP280;71067;51.482;-0.580;2023-10-13T13:50:27;99794.16;;;20.24
81657;BMP280;71067;51.482;-0.580;2023-10-13T13:52:55;99794.16;;;20.24
81657;BMP280;71067;51.482;-0.580;2023-10-13T13:55:23;99781.56;;;20.31
81657;BMP280;71067;51.482;-0.580;2023-10-13T13:57:50;99770.06;;;20.37
81657;BMP280;71067;51.482;-0.580;2023-10-13T14:00:17;99766.13;;;20.35
81657;BMP280;71067;51.482;-0.580;2023-10-13T14:02:46;99767.41;;;20.32
81657;BMP280;71067;51.482;-0.580;2023-10-13T14:05:14;99766.13;;;20.35
81657;BMP280;71067;51.482;-0.580;2023-10-13T14:07:42;99764.59;;;20.39
81657;BMP280;71067;51.482;-0.580;2023-10-13T14:10:08;99758.59;;;20.48
81657;BMP280;71067;51.482;-0.580;2023-10-13T14:12:41;99762.28;;;20.52
81657;BMP280;71067;51.482;-0.580;2023-10-13T14:15:10;99741.06;;;20.59
81657;BMP280;71067;51.482;-0.580;2023-10-13T14:17:49;99751.78;;;20.57
81657;BMP280;71067;51.482;-0.580;2023-10-13T14:20:15;99753.16;;;20.60
81657;BMP280;71067;51.482;-0.580;2023-10-13T14:22:44;99749.75;;;20.64
81657;BMP280;71067;51.482;-0.580;2023-10-13T14:25:13;99745.88;;;20.72
81657;BMP280;71067;51.482;-0.580;2023-10-13T14:27:42;99754.06;;;20.80
81657;BMP280;71067;51.482;-0.580;2023-10-13T14:30:08;99763.50;;;20.81
81657;BMP280;71067;51.482;-0.580;2023-10-13T14:32:33;99763.28;;;20.83
81657;BMP280;71067;51.482;-0.580;2023-10-13T14:35:05;99777.16;;;20.73
81657;BMP280;71067;51.482;-0.580;2023-10-13T14:37:40;99768.38;;;20.58
81657;BMP280;71067;51.482;-0.580;2023-10-13T14:40:07;99770.78;;;20.59
81657;BMP280;71067;51.482;-0.580;2023-10-13T14:42:38;99775.13;;;20.44
81657;BMP280;71067;51.482;-0.580;2023-10-13T14:45:06;99759.00;;;20.30
81657;BMP280;71067;51.482;-0.580;2023-10-13T14:47:38;99762.38;;;20.26
81657;BMP280;71067;51.482;-0.580;2023-10-13T14:50:05;99756.22;;;20.15
81657;BMP280;71067;51.482;-0.580;2023-10-13T14:52:30;99756.66;;;20.02
81657;BMP280;71067;51.482;-0.580;2023-10-13T14:54:58;99745.31;;;19.97